createdAt,value
2022-10-24T00:00:01.378Z,99899.78
2022-10-24T00:02:48.833Z,99901.66
2022-10-24T00:05:36.216Z,99906.06
2022-10-24T00:08:23.493Z,99928.72
2022-10-24T00:11:12.477Z,99934.13
2022-10-24T00:14:03.161Z,99942.06
2022-10-24T00:16:50.902Z,99963.91
2022-10-24T00:19:38.275Z,99953.09
2022-10-24T00:22:25.578Z,99961.22
2022-10-24T00:25:12.917Z,99953.91
2022-10-24T00:28:00.748Z,99936.03
2022-10-24T00:30:52.902Z,99938.72
2022-10-24T00:33:40.649Z,99921.03
2022-10-24T00:36:29.530Z,99914.78
2022-10-24T00:39:16.820Z,99937.47
2022-10-24T00:42:04.508Z,99928.75
2022-10-24T00:44:55.156Z,99923.34
2022-10-24T00:47:44.224Z,99933.31
2022-10-24T00:50:32.076Z,99935.19
2022-10-24T00:53:20.922Z,99924.59
2022-10-24T00:56:09.919Z,99911.88
2022-10-24T00:58:59.553Z,99886.72
2022-10-24T01:01:48.799Z,99887.53
2022-10-24T01:04:38.035Z,99882.50
2022-10-24T01:07:47.887Z,99896.69
2022-10-24T01:10:45.581Z,99896.91
2022-10-24T01:13:44.708Z,99887.09
2022-10-24T01:16:40.283Z,99887.72
2022-10-24T01:20:25.688Z,99891.28
2022-10-24T01:24:02.657Z,99866.31
2022-10-24T01:27:21.127Z,99866.72
2022-10-24T01:30:11.931Z,99852.56
2022-10-24T01:33:04.894Z,99843.63
2022-10-24T01:35:57.731Z,99842.19
2022-10-24T01:38:53.882Z,99837.78
2022-10-24T01:41:43.636Z,99822.63
2022-10-24T01:44:38.463Z,99819.28
2022-10-24T01:47:32.027Z,99823.88
2022-10-24T01:50:22.679Z,99821.16
2022-10-24T01:53:11.359Z,99824.06
2022-10-24T01:55:59.706Z,99816.16
2022-10-24T01:58:47.109Z,99792.44
2022-10-24T02:01:36.450Z,99803.47
2022-10-24T02:04:27.452Z,99795.56
2022-10-24T02:07:17.534Z,99797.22
2022-10-24T02:10:11.169Z,99806.19
2022-10-24T02:13:04.932Z,99809.28
2022-10-24T02:15:56.950Z,99817.19
2022-10-24T02:18:44.833Z,99828.03
2022-10-24T02:21:44.041Z,99839.03
2022-10-24T02:24:38.278Z,99817.19
2022-10-24T02:27:34.173Z,99824.50
2022-10-24T02:30:25.417Z,99806.59
2022-10-24T02:33:14.230Z,99799.31
2022-10-24T02:36:02.372Z,99812.84
2022-10-24T02:38:53.790Z,99816.38
2022-10-24T02:41:44.174Z,99813.88
2022-10-24T02:44:33.654Z,99812.84
2022-10-24T02:47:22.507Z,99807.22
2022-10-24T02:50:11.185Z,99816.38
2022-10-24T02:52:58.852Z,99812.63
2022-10-24T02:55:47.837Z,99803.06
2022-10-24T02:58:35.754Z,99808.03
2022-10-24T03:01:23.568Z,99803.47
2022-10-24T03:04:11.442Z,99800.78
2022-10-24T03:06:58.708Z,99805.13
2022-10-24T03:09:46.225Z,99813.25
2022-10-24T03:12:35.371Z,99808.66
2022-10-24T03:15:23.370Z,99809.91
2022-10-24T03:18:11.206Z,99809.72
2022-10-24T03:20:58.788Z,99807.63
2022-10-24T03:23:46.239Z,99800.53
2022-10-24T03:26:33.739Z,99801.38
2022-10-24T03:29:22.569Z,99794.31
2022-10-24T03:32:10.199Z,99795.97
2022-10-24T03:34:57.616Z,99789.53
2022-10-24T03:37:45.373Z,99789.53
2022-10-24T03:40:32.881Z,99786.81
2022-10-24T03:43:21.393Z,99786.81
2022-10-24T03:46:10.152Z,99781.19
2022-10-24T03:48:57.840Z,99772.25
2022-10-24T03:51:45.051Z,99782.88
2022-10-24T03:54:32.418Z,99793.69
2022-10-24T04:00:13.228Z,99788.91
2022-10-24T04:03:02.246Z,99771.63
2022-10-24T04:05:49.934Z,99769.72
2022-10-24T04:08:37.309Z,99770.59
2022-10-24T04:11:24.713Z,99766.84
2022-10-24T04:14:12.160Z,99770.34
2022-10-24T04:16:59.487Z,99776.59
2022-10-24T04:19:48.290Z,99776.41
2022-10-24T04:22:36.152Z,99781.81
2022-10-24T04:25:24.040Z,99775.34
2022-10-24T04:28:11.569Z,99785.13
2022-10-24T04:30:59.202Z,99782.19
2022-10-24T04:33:46.735Z,99785.75
2022-10-24T04:36:36.101Z,99787.41
2022-10-24T04:39:23.751Z,99793.66
2022-10-24T04:42:13.312Z,99790.94
2022-10-24T04:45:00.767Z,99786.34
2022-10-24T04:47:48.406Z,99786.16
2022-10-24T04:50:36.014Z,99804.28
2022-10-24T04:53:25.289Z,99802.41
2022-10-24T04:56:12.928Z,99801.34
2022-10-24T04:59:00.320Z,99801.34
2022-10-24T05:01:47.784Z,99799.50
2022-10-24T05:04:35.589Z,99805.72
2022-10-24T05:07:23.083Z,99809.25
2022-10-24T05:10:13.825Z,99810.94
2022-10-24T05:13:01.510Z,99817.19
2022-10-24T05:15:48.809Z,99819.88
2022-10-24T05:18:36.455Z,99821.75
2022-10-24T05:21:23.708Z,99823.41
2022-10-24T05:24:11.481Z,99813.41
2022-10-24T05:27:00.306Z,99808.00
2022-10-24T05:29:48.090Z,99809.25
2022-10-24T05:32:38.729Z,99806.13
2022-10-24T05:35:27.470Z,99814.25
2022-10-24T05:38:14.981Z,99817.56
2022-10-24T05:41:02.334Z,99809.44
2022-10-24T05:43:50.982Z,99811.34
2022-10-24T05:46:38.607Z,99824.88
2022-10-24T05:49:26.121Z,99823.81
2022-10-24T05:52:13.571Z,99829.22
2022-10-24T05:55:08.732Z,99830.06
2022-10-24T05:57:56.558Z,99830.06
2022-10-24T06:00:46.359Z,99830.06
2022-10-24T06:03:36.949Z,99833.59
2022-10-24T06:06:24.998Z,99841.72
2022-10-24T06:09:13.589Z,99832.56
2022-10-24T06:12:00.988Z,99827.97
2022-10-24T06:14:48.350Z,99821.53
2022-10-24T06:17:37.586Z,99824.00
2022-10-24T06:20:25.153Z,99832.75
2022-10-24T06:23:13.017Z,99837.13
2022-10-24T06:26:02.837Z,99839.63
2022-10-24T06:28:50.336Z,99836.50
2022-10-24T06:31:38.478Z,99846.28
2022-10-24T06:34:27.769Z,99843.38
2022-10-24T06:37:15.577Z,99845.84
2022-10-24T06:40:02.895Z,99858.94
2022-10-24T06:42:50.489Z,99859.56
2022-10-24T06:45:41.845Z,99851.88
2022-10-24T06:48:29.599Z,99852.69
2022-10-24T06:51:18.595Z,99846.84
2022-10-24T06:54:06.654Z,99851.00
2022-10-24T06:56:54.145Z,99847.88
2022-10-24T06:59:41.648Z,99844.75
2022-10-24T07:02:29.288Z,99848.91
2022-10-24T07:05:17.424Z,99840.38
2022-10-24T07:08:07.290Z,99844.53
2022-10-24T07:10:54.812Z,99844.09
2022-10-24T07:13:42.401Z,99844.72
2022-10-24T07:16:30.300Z,99844.06
2022-10-24T07:19:17.496Z,99840.09
2022-10-24T07:22:05.130Z,99851.34
2022-10-24T07:25:00.612Z,99847.19
2022-10-24T07:27:49.597Z,99840.28
2022-10-24T07:30:37.699Z,99842.56
2022-10-24T07:33:25.505Z,99845.66
2022-10-24T07:36:20.721Z,99859.38
2022-10-24T07:39:07.954Z,99857.31
2022-10-24T07:41:57.125Z,99859.38
2022-10-24T07:44:44.821Z,99861.44
2022-10-24T07:47:32.560Z,99862.44
2022-10-24T07:50:20.433Z,99865.13
2022-10-24T07:53:10.312Z,99870.72
2022-10-24T07:56:02.198Z,99871.72
2022-10-24T07:58:51.191Z,99869.19
2022-10-24T08:01:38.891Z,99869.97
2022-10-24T08:04:26.667Z,99856.16
2022-10-24T08:07:14.375Z,99862.34
2022-10-24T08:10:02.008Z,99870.25
2022-10-24T08:12:49.555Z,99872.69
2022-10-24T08:15:39.031Z,99872.63
2022-10-24T08:18:30.106Z,99875.31
2022-10-24T08:21:20.888Z,99864.00
2022-10-24T08:24:09.123Z,99863.56
2022-10-24T08:26:56.991Z,99860.88
2022-10-24T08:29:44.660Z,99869.38
2022-10-24T08:32:33.197Z,99858.06
2022-10-24T08:35:22.158Z,99858.69
2022-10-24T08:38:09.932Z,99856.38
2022-10-24T08:40:58.162Z,99856.75
2022-10-24T08:43:45.947Z,99855.25
2022-10-24T08:46:52.138Z,99856.69
2022-10-24T08:49:50.295Z,99849.72
2022-10-24T08:52:44.910Z,99852.03
2022-10-24T08:55:49.127Z,99856.75
2022-10-24T08:58:41.943Z,99853.38
2022-10-24T09:01:37.148Z,99851.66
2022-10-24T09:04:30.134Z,99848.66
2022-10-24T09:07:22.210Z,99849.75
2022-10-24T09:10:20.307Z,99838.63
2022-10-24T09:13:16.000Z,99835.34
2022-10-24T09:16:04.626Z,99852.81
2022-10-24T09:18:57.702Z,99845.91
2022-10-24T09:21:46.051Z,99844.56
2022-10-24T09:24:45.772Z,99839.09
2022-10-24T09:27:36.706Z,99849.25
2022-10-24T09:30:31.427Z,99843.31
2022-10-24T09:33:29.498Z,99839.56
2022-10-24T09:36:20.279Z,99844.00
2022-10-24T09:39:28.024Z,99842.56
2022-10-24T09:42:23.886Z,99835.56
2022-10-24T09:45:43.009Z,99854.06
2022-10-24T09:48:37.505Z,99847.75
2022-10-24T09:51:33.841Z,99857.78
2022-10-24T09:54:30.227Z,99858.97
2022-10-24T09:57:19.361Z,99861.47
2022-10-24T10:00:08.915Z,99857.34
2022-10-24T10:03:06.488Z,99859.69
2022-10-24T10:05:58.497Z,99849.13
2022-10-24T10:08:52.242Z,99845.41
2022-10-24T10:11:40.777Z,99841.91
2022-10-24T10:14:41.635Z,99833.16
2022-10-24T10:17:31.959Z,99834.53
2022-10-24T10:20:28.328Z,99829.94
2022-10-24T10:23:26.626Z,99828.25
2022-10-24T10:26:25.320Z,99821.13
2022-10-24T10:29:24.917Z,99827.75
2022-10-24T10:32:24.453Z,99826.88
2022-10-24T10:35:21.296Z,99823.84
2022-10-24T10:38:28.074Z,99830.41
2022-10-24T10:41:33.992Z,99817.75
2022-10-24T10:44:48.190Z,99824.84
2022-10-24T10:47:52.305Z,99828.00
2022-10-24T10:50:47.469Z,99839.16
2022-10-24T10:53:41.752Z,99844.56
2022-10-24T10:56:36.269Z,99837.09
2022-10-24T10:59:42.387Z,99831.50
2022-10-24T11:03:18.097Z,99830.25
2022-10-24T11:06:27.746Z,99827.09
2022-10-24T11:09:32.332Z,99832.13
2022-10-24T11:12:26.234Z,99830.31
2022-10-24T11:15:22.870Z,99823.03
2022-10-24T11:18:19.272Z,99831.31
2022-10-24T11:21:10.643Z,99821.03
2022-10-24T11:24:04.462Z,99817.38
2022-10-24T11:27:00.986Z,99804.91
2022-10-24T11:29:56.631Z,99811.56
2022-10-24T11:32:53.620Z,99801.31
2022-10-24T11:36:07.634Z,99798.41
2022-10-24T11:39:02.678Z,99801.28
2022-10-24T11:41:59.624Z,99787.22
2022-10-24T11:44:54.964Z,99794.19
2022-10-24T11:48:01.158Z,99794.88
2022-10-24T11:50:55.374Z,99791.97
2022-10-24T11:53:54.694Z,99788.84
2022-10-24T11:56:48.483Z,99783.53
2022-10-24T11:59:38.515Z,99783.69
2022-10-24T12:03:09.309Z,99792.63
2022-10-24T12:06:18.115Z,99786.50
2022-10-24T12:09:44.417Z,99783.94
2022-10-24T12:12:56.859Z,99775.88
2022-10-24T12:15:55.595Z,99778.53
2022-10-24T12:18:48.507Z,99765.66
2022-10-24T12:21:42.788Z,99769.94
2022-10-24T12:24:34.714Z,99761.66
2022-10-24T12:27:31.747Z,99763.00
2022-10-24T12:30:24.254Z,99765.34
2022-10-24T12:33:25.895Z,99764.22
2022-10-24T12:36:13.641Z,99749.16
2022-10-24T12:39:06.165Z,99749.41
2022-10-24T12:41:56.000Z,99755.09
2022-10-24T12:44:46.875Z,99740.63
2022-10-24T12:47:40.894Z,99738.19
2022-10-24T12:51:15.245Z,99742.22
2022-10-24T12:54:19.393Z,99737.81
2022-10-24T12:57:29.741Z,99734.50
2022-10-24T13:00:26.667Z,99734.50
2022-10-24T13:03:23.895Z,99740.22
2022-10-24T13:06:20.860Z,99735.59
2022-10-24T13:09:25.139Z,99730.38
2022-10-24T13:12:40.436Z,99736.09
2022-10-24T13:15:42.245Z,99738.22
2022-10-24T13:18:47.912Z,99744.16
2022-10-24T13:21:46.726Z,99750.94
2022-10-24T13:24:40.005Z,99758.75
2022-10-24T13:27:32.308Z,99760.91
2022-10-24T13:30:29.289Z,99763.03
2022-10-24T13:33:46.388Z,99756.16
2022-10-24T13:36:35.872Z,99756.41
2022-10-24T13:39:29.839Z,99758.53
2022-10-24T13:42:32.994Z,99760.66
2022-10-24T13:45:28.929Z,99763.66
2022-10-24T13:48:21.525Z,99759.53
2022-10-24T13:51:18.593Z,99757.84
2022-10-24T13:54:16.231Z,99762.47
2022-10-24T13:57:03.952Z,99764.59
2022-10-24T13:59:59.646Z,99777.19
2022-10-24T14:02:47.517Z,99783.69
2022-10-24T14:05:41.666Z,99792.94
2022-10-24T14:08:34.852Z,99787.72
2022-10-24T14:11:26.920Z,99795.91
2022-10-24T14:14:28.762Z,99794.84
2022-10-24T14:17:26.184Z,99796.97
2022-10-24T14:20:24.445Z,99807.88
2022-10-24T14:23:29.504Z,99799.94
2022-10-24T14:26:23.785Z,99801.25
2022-10-24T14:29:23.731Z,99789.75
2022-10-24T14:32:16.559Z,99795.44
2022-10-24T14:35:13.659Z,99792.97
2022-10-24T14:38:04.916Z,99794.28
2022-10-24T14:41:07.792Z,99790.94
2022-10-24T14:43:58.111Z,99791.44
2022-10-24T14:46:48.038Z,99784.34
2022-10-24T14:49:38.211Z,99784.81
2022-10-24T14:52:37.123Z,99787.78
2022-10-24T14:55:25.077Z,99777.13
2022-10-24T14:58:25.639Z,99777.59
2022-10-24T15:01:19.631Z,99777.84
2022-10-24T15:04:22.564Z,99775.59
2022-10-24T15:07:31.344Z,99775.00
2022-10-24T15:10:30.224Z,99769.22
2022-10-24T15:13:21.661Z,99770.53
2022-10-24T15:16:28.367Z,99777.03
2022-10-24T15:19:19.443Z,99772.88
2022-10-24T15:22:06.781Z,99770.63
2022-10-24T15:24:57.907Z,99771.72
2022-10-24T15:27:46.925Z,99785.78
2022-10-24T15:30:37.932Z,99790.41
2022-10-24T15:33:25.339Z,99793.63
2022-10-24T15:36:22.943Z,99795.75
2022-10-24T15:39:17.397Z,99801.66
2022-10-24T15:42:06.301Z,99815.50
2022-10-24T15:44:53.957Z,99805.69
2022-10-24T15:47:41.380Z,99814.06
2022-10-24T15:50:28.529Z,99818.91
2022-10-24T15:53:20.023Z,99827.34
2022-10-24T15:56:08.468Z,99814.19
2022-10-24T15:58:57.450Z,99817.94
2022-10-24T16:01:49.944Z,99807.28
2022-10-24T16:04:40.411Z,99812.38
2022-10-24T16:07:27.949Z,99794.63
2022-10-24T16:10:19.838Z,99786.13
2022-10-24T16:13:07.610Z,99790.97
2022-10-24T16:15:56.442Z,99795.00
2022-10-24T16:18:44.098Z,99793.78
2022-10-24T16:21:31.498Z,99805.75
2022-10-24T16:24:18.902Z,99807.88
2022-10-24T16:27:06.261Z,99802.06
2022-10-24T16:29:53.938Z,99810.47
2022-10-24T16:32:44.245Z,99802.78
2022-10-24T16:35:35.394Z,99807.63
2022-10-24T16:38:22.929Z,99807.25
2022-10-24T16:41:16.807Z,99813.97
2022-10-24T16:44:06.517Z,99813.38
2022-10-24T16:46:55.169Z,99805.69
2022-10-24T16:49:45.453Z,99814.94
2022-10-24T16:52:33.319Z,99810.78
2022-10-24T16:55:21.212Z,99813.72
2022-10-24T16:58:08.805Z,99819.38
2022-10-24T17:01:04.346Z,99824.25
2022-10-24T17:03:52.499Z,99827.19
2022-10-24T17:06:41.787Z,99823.88
2022-10-24T17:09:29.641Z,99834.75
2022-10-24T17:12:17.987Z,99839.56
2022-10-24T17:15:06.801Z,99837.94
2022-10-24T17:17:54.483Z,99836.28
2022-10-24T17:20:45.220Z,99839.00
2022-10-24T17:23:35.257Z,99835.44
2022-10-24T17:26:25.499Z,99834.59
2022-10-24T17:29:19.398Z,99842.75
2022-10-24T17:32:07.864Z,99843.84
2022-10-24T17:34:56.250Z,99840.28
2022-10-24T17:37:55.817Z,99835.69
2022-10-24T17:40:48.707Z,99843.00
2022-10-24T17:43:37.351Z,99840.50
2022-10-24T17:46:25.832Z,99836.13
2022-10-24T17:49:17.891Z,99841.56
2022-10-24T17:52:09.377Z,99842.84
2022-10-24T17:54:57.404Z,99837.66
2022-10-24T17:57:46.802Z,99828.91
2022-10-24T18:00:35.704Z,99828.53
2022-10-24T18:03:23.728Z,99835.03
2022-10-24T18:06:12.844Z,99830.88
2022-10-24T18:09:00.706Z,99819.66
2022-10-24T18:11:48.633Z,99820.69
2022-10-24T18:14:39.640Z,99820.09
2022-10-24T18:17:27.576Z,99833.09
2022-10-24T18:20:16.434Z,99844.41
2022-10-24T18:23:04.727Z,99840.25
2022-10-24T18:25:51.868Z,99833.19
2022-10-24T18:28:39.718Z,99832.31
2022-10-24T18:31:35.145Z,99836.94
2022-10-24T18:34:25.301Z,99840.94
2022-10-24T18:37:15.260Z,99852.84
2022-10-24T18:40:05.627Z,99854.75
2022-10-24T18:42:58.882Z,99851.41
2022-10-24T18:45:48.360Z,99852.25
2022-10-24T18:48:37.987Z,99851.41
2022-10-24T18:51:34.938Z,99856.84
2022-10-24T18:54:23.485Z,99848.91
2022-10-24T18:57:23.833Z,99850.59
2022-10-24T19:00:17.409Z,99858.97
2022-10-24T19:03:21.787Z,99860.84
2022-10-24T19:06:23.685Z,99866.28
2022-10-24T19:09:17.655Z,99870.91
2022-10-24T19:12:07.179Z,99869.00
2022-10-24T19:14:54.915Z,99871.72
2022-10-24T19:17:42.786Z,99867.94
2022-10-24T19:20:35.733Z,99871.72
2022-10-24T19:23:24.845Z,99871.72
2022-10-24T19:26:13.945Z,99859.78
2022-10-24T19:29:04.818Z,99852.69
2022-10-24T19:31:53.399Z,99854.34
2022-10-24T19:34:42.604Z,99859.78
2022-10-24T19:37:30.331Z,99873.38
2022-10-24T19:40:19.381Z,99873.63
2022-10-24T19:43:06.929Z,99873.38
2022-10-24T19:46:07.801Z,99866.50
2022-10-24T19:49:03.817Z,99880.94
2022-10-24T19:51:52.493Z,99873.63
2022-10-24T19:54:40.659Z,99880.09
2022-10-24T19:57:30.194Z,99877.38
2022-10-24T20:00:21.155Z,99892.63
2022-10-24T20:03:08.951Z,99880.94
2022-10-24T20:06:00.502Z,99868.41
2022-10-24T20:08:49.329Z,99866.75
2022-10-24T20:11:36.570Z,99874.91
2022-10-24T20:14:25.791Z,99877.63
2022-10-24T20:17:13.352Z,99877.84
2022-10-24T20:20:01.180Z,99877.00
2022-10-24T20:22:49.429Z,99881.84
2022-10-24T20:25:37.181Z,99877.69
2022-10-24T20:28:24.614Z,99877.47
2022-10-24T20:31:22.159Z,99880.19
2022-10-24T20:34:10.864Z,99883.94
2022-10-24T20:36:58.424Z,99883.38
2022-10-24T20:39:45.874Z,99879.59
2022-10-24T20:42:33.381Z,99883.94
2022-10-24T20:45:22.947Z,99883.38
2022-10-24T20:48:13.286Z,99883.13
2022-10-24T20:51:11.701Z,99889.63
2022-10-24T20:53:59.497Z,99881.47
2022-10-24T20:56:55.935Z,99878.75
2022-10-24T20:59:43.233Z,99887.13
2022-10-24T21:02:30.796Z,99883.59
2022-10-24T21:05:19.971Z,99872.50
2022-10-24T21:08:08.001Z,99872.72
2022-10-24T21:10:55.417Z,99882.50
2022-10-24T21:13:43.095Z,99869.19
2022-10-24T21:16:31.422Z,99876.47
2022-10-24T21:19:18.876Z,99880.03
2022-10-24T21:22:07.800Z,99868.31
2022-10-24T21:24:55.492Z,99873.75
2022-10-24T21:27:45.760Z,99872.09
2022-10-24T21:30:33.584Z,99876.94
2022-10-24T21:33:20.955Z,99885.91
2022-10-24T21:36:11.704Z,99902.00
2022-10-24T21:39:00.591Z,99901.16
2022-10-24T21:41:47.982Z,99905.78
2022-10-24T21:44:36.334Z,99897.84
2022-10-24T21:47:23.926Z,99894.31
2022-10-24T21:50:11.518Z,99893.22
2022-10-24T21:52:59.913Z,99886.16
2022-10-24T21:55:48.642Z,99885.53
2022-10-24T21:58:36.675Z,99897.69
2022-10-24T22:01:26.560Z,99892.47
2022-10-24T22:04:15.426Z,99893.31
2022-10-24T22:07:07.341Z,99891.88
2022-10-24T22:09:54.862Z,99888.09
2022-10-24T22:12:43.632Z,99895.44
2022-10-24T22:15:33.190Z,99897.53
2022-10-24T22:18:20.940Z,99895.84
2022-10-24T22:21:15.763Z,99906.72
2022-10-24T22:26:57.763Z,99913.88
2022-10-24T22:29:46.698Z,99910.34
2022-10-24T22:32:34.933Z,99918.72
2022-10-24T22:35:23.766Z,99909.97
2022-10-24T22:38:11.729Z,99908.91
2022-10-24T22:41:01.526Z,99909.72
2022-10-24T22:43:50.177Z,99901.84
2022-10-24T22:47:03.026Z,99903.69
2022-10-24T22:50:02.011Z,99902.88
2022-10-24T22:52:50.186Z,99900.16
2022-10-24T22:55:45.647Z,99900.41
2022-10-24T22:58:33.922Z,99901.44
2022-10-24T23:01:40.046Z,99902.25
2022-10-24T23:04:37.456Z,99892.66
2022-10-24T23:07:32.212Z,99900.81
2022-10-24T23:10:23.199Z,99895.63
2022-10-24T23:13:11.316Z,99891.47
2022-10-24T23:16:06.639Z,99900.44
2022-10-24T23:18:55.060Z,99899.22
2022-10-24T23:21:51.594Z,99896.75
2022-10-24T23:24:39.490Z,99903.47
2022-10-24T23:27:36.047Z,99899.06
2022-10-24T23:30:25.377Z,99896.59
2022-10-24T23:33:27.420Z,99912.03
2022-10-24T23:36:23.923Z,99907.03
2022-10-24T23:39:16.641Z,99909.97
2022-10-24T23:42:05.282Z,99913.97
2022-10-24T23:44:53.332Z,99924.81
2022-10-24T23:47:59.562Z,99918.81
2022-10-24T23:50:55.684Z,99920.91
2022-10-24T23:53:50.678Z,99914.84
2022-10-24T23:56:42.114Z,99908.81
2022-10-24T23:59:30.216Z,99919.69
